createdAt,value
2018-12-05T00:00:33.551Z,945.17
2018-12-05T00:01:34.510Z,945.17
2018-12-05T00:02:35.191Z,945.13
2018-12-05T00:03:35.871Z,945.17
2018-12-05T00:04:36.556Z,945.16
2018-12-05T00:05:37.056Z,945.17
2018-12-05T00:06:38.018Z,945.18
2018-12-05T00:07:38.402Z,945.21
2018-12-05T00:08:39.108Z,945.23
2018-12-05T00:09:39.523Z,945.23
2018-12-05T00:10:40.654Z,945.23
2018-12-05T00:11:41.615Z,945.28
2018-12-05T00:12:42.740Z,945.28
2018-12-05T00:13:43.145Z,945.26
2018-12-05T00:14:43.824Z,945.24
2018-12-05T00:15:44.231Z,945.24
2018-12-05T00:16:44.914Z,945.23
2018-12-05T00:17:45.274Z,945.26
2018-12-05T00:18:46.678Z,945.27
2018-12-05T00:19:47.357Z,945.3
2018-12-05T00:20:48.534Z,945.26
2018-12-05T00:21:48.937Z,945.32
2018-12-05T00:22:49.370Z,945.33
2018-12-05T00:23:50.497Z,945.25
2018-12-05T00:24:51.459Z,945.26
2018-12-05T00:25:51.862Z,945.27
2018-12-05T00:26:52.885Z,945.32
2018-12-05T00:27:53.994Z,945.37
2018-12-05T00:28:55.125Z,945.32
2018-12-05T00:29:55.636Z,945.31
2018-12-05T00:30:56.315Z,945.26
2018-12-05T00:31:56.724Z,945.2
2018-12-05T00:32:57.401Z,945.18
2018-12-05T00:33:57.809Z,945.22
2018-12-05T00:34:58.507Z,945.18
2018-12-05T00:35:58.911Z,945.14
2018-12-05T00:37:00.039Z,945.12
2018-12-05T00:38:00.420Z,945.07
2018-12-05T00:39:00.821Z,945.05
2018-12-05T00:40:01.504Z,945
2018-12-05T00:41:02.464Z,945.03
2018-12-05T00:42:02.868Z,944.97
2018-12-05T00:43:03.555Z,944.94
2018-12-05T00:44:04.524Z,944.92
2018-12-05T00:45:04.930Z,944.88
2018-12-05T00:46:05.894Z,944.91
2018-12-05T00:47:06.133Z,944.93
2018-12-05T00:48:07.241Z,944.92
2018-12-05T00:49:08.366Z,944.95
2018-12-05T00:50:08.773Z,944.93
2018-12-05T00:51:09.178Z,944.93
2018-12-05T00:52:09.853Z,944.95
2018-12-05T00:53:10.534Z,944.91
2018-12-05T00:54:11.215Z,944.89
2018-12-05T00:55:12.341Z,944.84
2018-12-05T00:56:12.745Z,944.86
2018-12-05T00:57:13.701Z,944.89
2018-12-05T00:58:14.232Z,944.84
2018-12-05T00:59:14.915Z,944.86
2018-12-05T01:00:15.599Z,944.82
2018-12-05T01:01:16.002Z,944.9
2018-12-05T01:02:16.479Z,944.81
2018-12-05T01:03:17.162Z,944.89
2018-12-05T01:04:18.395Z,944.91
2018-12-05T01:05:19.522Z,944.85
2018-12-05T01:06:20.655Z,944.83
2018-12-05T01:07:21.333Z,944.85
2018-12-05T01:08:21.862Z,944.83
2018-12-05T01:09:22.548Z,944.78
2018-12-05T01:10:23.671Z,944.83
2018-12-05T01:11:24.350Z,944.8
2018-12-05T01:12:25.307Z,944.77
2018-12-05T01:13:25.710Z,944.75
2018-12-05T01:15:27.697Z,944.82
2018-12-05T01:16:28.104Z,944.78
2018-12-05T01:17:28.555Z,944.74
2018-12-05T01:18:29.655Z,944.73
2018-12-05T01:19:30.794Z,944.69
2018-12-05T01:20:31.200Z,944.68
2018-12-05T01:21:31.884Z,944.66
2018-12-05T01:22:32.567Z,944.7
2018-12-05T01:23:32.805Z,944.69
2018-12-05T01:24:33.489Z,944.7
2018-12-05T01:25:33.893Z,944.75
2018-12-05T01:26:34.299Z,944.72
2018-12-05T01:27:34.710Z,944.72
2018-12-05T01:28:35.531Z,944.75
2018-12-05T01:29:36.493Z,944.74
2018-12-05T01:30:36.901Z,944.71
2018-12-05T01:31:37.307Z,944.71
2018-12-05T01:32:37.712Z,944.66
2018-12-05T01:33:38.675Z,944.67
2018-12-05T01:34:39.799Z,944.65
2018-12-05T01:35:40.212Z,944.68
2018-12-05T01:36:41.170Z,944.63
2018-12-05T01:37:42.133Z,944.65
2018-12-05T01:38:42.944Z,944.66
2018-12-05T01:39:43.348Z,944.64
2018-12-05T01:40:44.029Z,944.64
2018-12-05T01:41:45.157Z,944.56
2018-12-05T01:42:45.560Z,944.54
2018-12-05T01:43:46.243Z,944.6
2018-12-05T01:44:47.202Z,944.62
2018-12-05T01:45:48.161Z,944.66
2018-12-05T01:46:48.563Z,944.72
2018-12-05T01:47:48.974Z,944.68
2018-12-05T01:48:50.077Z,944.7
2018-12-05T01:49:51.040Z,944.68
2018-12-05T01:50:51.445Z,944.72
2018-12-05T01:51:51.848Z,944.72
2018-12-05T01:52:52.254Z,944.75
2018-12-05T01:53:52.935Z,944.78
2018-12-05T01:54:53.339Z,944.79
2018-12-05T01:55:54.302Z,944.78
2018-12-05T01:56:55.431Z,944.77
2018-12-05T01:57:55.839Z,944.78
2018-12-05T01:58:56.944Z,944.77
2018-12-05T01:59:57.627Z,944.79
2018-12-05T02:00:58.308Z,944.76
2018-12-05T02:01:59.271Z,944.76
2018-12-05T02:03:00.047Z,944.77
2018-12-05T02:04:00.283Z,944.76
2018-12-05T02:05:00.689Z,944.71
2018-12-05T02:06:01.735Z,944.7
2018-12-05T02:07:02.986Z,944.74
2018-12-05T02:08:03.684Z,944.75
2018-12-05T02:09:04.500Z,944.76
2018-12-05T02:10:04.911Z,944.74
2018-12-05T02:11:05.320Z,944.78
2018-12-05T02:12:05.727Z,944.79
2018-12-05T02:13:06.408Z,944.77
2018-12-05T02:14:07.158Z,944.8
2018-12-05T02:15:07.854Z,944.82
2018-12-05T02:16:08.983Z,944.81
2018-12-05T02:17:09.946Z,944.84
2018-12-05T02:18:10.351Z,944.84
2018-12-05T02:19:11.443Z,944.86
2018-12-05T02:20:12.129Z,944.82
2018-12-05T02:21:12.538Z,944.85
2018-12-05T02:22:12.945Z,944.87
2018-12-05T02:23:13.627Z,944.85
2018-12-05T02:24:14.314Z,944.86
2018-12-05T02:25:14.996Z,944.83
2018-12-05T02:26:15.681Z,944.83
2018-12-05T02:27:16.812Z,944.85
2018-12-05T02:28:17.776Z,944.89
2018-12-05T02:29:18.882Z,944.89
2018-12-05T02:30:19.568Z,944.89
2018-12-05T02:31:19.876Z,944.96
2018-12-05T02:32:20.292Z,944.95
2018-12-05T02:33:20.818Z,945.01
2018-12-05T02:34:21.101Z,945.03
2018-12-05T02:35:21.353Z,945.03
2018-12-05T02:36:22.035Z,945.08
2018-12-05T02:37:22.275Z,945.11
2018-12-05T02:38:22.793Z,945.1
2018-12-05T02:39:24.203Z,945.08
2018-12-05T02:40:25.163Z,945.08
2018-12-05T02:41:25.684Z,945.02
2018-12-05T02:42:26.925Z,945
2018-12-05T02:43:27.332Z,944.94
2018-12-05T02:44:28.026Z,944.91
2018-12-05T02:45:29.374Z,944.88
2018-12-05T02:46:30.615Z,944.88
2018-12-05T02:47:31.020Z,944.8
2018-12-05T02:48:32.258Z,944.78
2018-12-05T02:49:32.665Z,944.74
2018-12-05T02:50:33.415Z,944.69
2018-12-05T02:51:34.385Z,944.61
2018-12-05T02:52:34.661Z,944.58
2018-12-05T02:53:35.073Z,944.54
2018-12-05T02:54:36.041Z,944.52
2018-12-05T02:55:36.280Z,944.6
2018-12-05T02:56:36.970Z,944.6
2018-12-05T02:57:38.014Z,944.64
2018-12-05T02:58:38.977Z,944.69
2018-12-05T02:59:39.374Z,944.72
2018-12-05T03:00:40.786Z,944.75
2018-12-05T03:01:41.473Z,944.74
2018-12-05T03:02:41.790Z,944.73
2018-12-05T03:03:42.758Z,944.72
2018-12-05T03:04:43.021Z,944.71
2018-12-05T03:05:44.150Z,944.74
2018-12-05T03:06:45.129Z,944.73
2018-12-05T03:07:46.104Z,944.74
2018-12-05T03:08:47.362Z,944.74
2018-12-05T03:09:48.189Z,944.73
2018-12-05T03:10:49.015Z,944.75
2018-12-05T03:11:49.251Z,944.72
2018-12-05T03:12:49.492Z,944.68
2018-12-05T03:13:49.910Z,944.74
2018-12-05T03:14:50.872Z,944.69
2018-12-05T03:15:51.282Z,944.63
2018-12-05T03:16:52.243Z,944.63
2018-12-05T03:17:52.765Z,944.61
2018-12-05T03:18:53.450Z,944.62
2018-12-05T03:19:54.107Z,944.65
2018-12-05T03:20:05.875Z,944.68
2018-12-05T03:21:07.247Z,944.67
2018-12-05T03:22:07.780Z,944.71
2018-12-05T03:23:08.190Z,944.74
2018-12-05T03:24:08.719Z,944.7
2018-12-05T03:25:09.411Z,944.66
2018-12-05T03:26:10.377Z,944.69
2018-12-05T03:27:11.070Z,944.71
2018-12-05T03:28:12.032Z,944.67
2018-12-05T03:29:13.281Z,944.7
2018-12-05T03:30:14.072Z,944.72
2018-12-05T03:31:15.311Z,944.7
2018-12-05T03:32:16.191Z,944.74
2018-12-05T03:33:17.057Z,944.76
2018-12-05T03:34:18.177Z,944.73
2018-12-05T03:35:19.159Z,944.74
2018-12-05T03:36:19.866Z,944.72
2018-12-05T03:37:20.826Z,944.73
2018-12-05T03:38:22.132Z,944.76
2018-12-05T03:39:23.096Z,944.75
2018-12-05T03:40:24.058Z,944.73
2018-12-05T03:41:24.818Z,944.68
2018-12-05T03:42:25.519Z,944.71
2018-12-05T03:43:26.929Z,944.71
2018-12-05T03:44:27.347Z,944.68
2018-12-05T03:45:28.613Z,944.72
2018-12-05T03:46:29.288Z,944.69
2018-12-05T03:47:29.970Z,944.68
2018-12-05T03:48:30.654Z,944.62
2018-12-05T03:49:31.342Z,944.62
2018-12-05T03:50:31.809Z,944.61
2018-12-05T03:51:32.456Z,944.6
2018-12-05T03:52:32.865Z,944.56
2018-12-05T03:53:33.828Z,944.6
2018-12-05T03:54:34.795Z,944.57
2018-12-05T03:55:35.788Z,944.53
2018-12-05T03:56:37.024Z,944.5
2018-12-05T03:57:37.993Z,944.41
2018-12-05T03:58:38.954Z,944.42
2018-12-05T03:59:39.641Z,944.36
2018-12-05T04:00:40.603Z,944.33
2018-12-05T04:01:41.435Z,944.32
2018-12-05T04:02:42.117Z,944.31
2018-12-05T04:03:42.805Z,944.33
2018-12-05T04:04:43.770Z,944.35
2018-12-05T04:05:44.454Z,944.35
2018-12-05T04:06:44.880Z,944.3
2018-12-05T04:07:45.570Z,944.29
2018-12-05T04:08:46.087Z,944.28
2018-12-05T04:09:46.775Z,944.29
2018-12-05T04:10:48.024Z,944.29
2018-12-05T04:11:48.732Z,944.3
2018-12-05T04:12:49.700Z,944.3
2018-12-05T04:13:50.678Z,944.32
2018-12-05T04:14:51.200Z,944.31
2018-12-05T04:15:51.887Z,944.33
2018-12-05T04:16:52.423Z,944.36
2018-12-05T04:17:52.661Z,944.36
2018-12-05T04:18:53.351Z,944.38
2018-12-05T04:19:54.318Z,944.44
2018-12-05T04:20:54.730Z,944.46
2018-12-05T04:21:55.549Z,944.48
2018-12-05T04:22:56.528Z,944.55
2018-12-05T04:23:56.948Z,944.5
2018-12-05T04:24:57.632Z,944.49
2018-12-05T04:25:58.316Z,944.54
2018-12-05T04:26:59.617Z,944.51
2018-12-05T04:28:00.312Z,944.54
2018-12-05T04:29:01.788Z,944.63
2018-12-05T04:30:02.782Z,944.69
2018-12-05T04:31:04.033Z,944.69
2018-12-05T04:32:05.164Z,944.7
2018-12-05T04:33:06.133Z,944.73
2018-12-05T04:34:07.381Z,944.72
2018-12-05T04:35:08.367Z,944.68
2018-12-05T04:36:09.055Z,944.71
2018-12-05T04:37:09.581Z,944.7
2018-12-05T04:38:10.270Z,944.7
2018-12-05T04:39:10.970Z,944.63
2018-12-05T04:40:11.663Z,944.65
2018-12-05T04:41:12.452Z,944.67
2018-12-05T04:42:12.821Z,944.7
2018-12-05T04:43:13.606Z,944.74
2018-12-05T04:44:14.568Z,944.77
2018-12-05T04:45:14.980Z,944.8
2018-12-05T04:46:15.946Z,944.77
2018-12-05T04:47:16.629Z,944.8
2018-12-05T04:48:17.320Z,944.78
2018-12-05T04:49:17.738Z,944.84
2018-12-05T04:50:18.708Z,944.86
2018-12-05T04:51:19.120Z,944.87
2018-12-05T04:52:19.918Z,944.86
2018-12-05T04:53:20.159Z,944.85
2018-12-05T04:54:20.413Z,944.83
2018-12-05T04:55:21.229Z,944.8
2018-12-05T04:56:22.192Z,944.85
2018-12-05T04:57:22.879Z,944.82
2018-12-05T04:58:23.564Z,944.81
2018-12-05T04:59:24.368Z,944.8
2018-12-05T05:00:25.530Z,944.83
2018-12-05T05:01:26.213Z,944.85
2018-12-05T05:02:27.335Z,944.8
2018-12-05T05:03:27.591Z,944.76
2018-12-05T05:04:28.557Z,944.76
2018-12-05T05:05:29.360Z,944.77
2018-12-05T05:06:30.045Z,944.8
2018-12-05T05:07:31.006Z,944.81
2018-12-05T05:08:31.417Z,944.86
2018-12-05T05:09:32.108Z,944.89
2018-12-05T05:10:32.402Z,944.91
2018-12-05T05:11:32.650Z,944.94
2018-12-05T05:12:33.608Z,944.87
2018-12-05T05:13:34.571Z,944.91
2018-12-05T05:14:35.093Z,944.89
2018-12-05T05:15:36.225Z,944.9
2018-12-05T05:16:36.923Z,944.89
2018-12-05T05:17:37.167Z,944.92
2018-12-05T05:18:38.133Z,944.89
2018-12-05T05:19:38.652Z,944.93
2018-12-05T05:20:39.059Z,944.92
2018-12-05T05:21:39.742Z,944.95
2018-12-05T05:22:41.151Z,944.95
2018-12-05T05:23:42.113Z,944.98
2018-12-05T05:24:42.631Z,944.94
2018-12-05T05:25:43.037Z,944.9
2018-12-05T05:26:43.722Z,944.92
2018-12-05T05:27:46.382Z,944.92
2018-12-05T05:28:47.069Z,944.87
2018-12-05T05:29:47.751Z,944.91
2018-12-05T05:30:48.877Z,944.91
2018-12-05T05:31:49.285Z,944.89
2018-12-05T05:32:50.662Z,944.83
2018-12-05T05:33:50.906Z,944.86
2018-12-05T05:34:51.431Z,944.84
2018-12-05T05:35:51.836Z,944.83
2018-12-05T05:36:52.076Z,944.8
2018-12-05T05:37:53.036Z,944.79
2018-12-05T05:38:53.444Z,944.82
2018-12-05T05:39:54.132Z,944.81
2018-12-05T05:40:55.095Z,944.84
2018-12-05T05:41:56.059Z,944.79
2018-12-05T05:42:56.769Z,944.77
2018-12-05T05:43:57.899Z,944.83
2018-12-05T05:44:59.029Z,944.83
2018-12-05T05:45:59.443Z,944.78
2018-12-05T05:46:59.683Z,944.76
2018-12-05T05:48:00.421Z,944.75
2018-12-05T05:49:00.884Z,944.77
2018-12-05T05:50:01.121Z,944.75
2018-12-05T05:51:01.805Z,944.75
2018-12-05T05:52:02.492Z,944.74
2018-12-05T05:53:03.433Z,944.75
2018-12-05T05:54:04.743Z,944.71
2018-12-05T05:55:05.156Z,944.74
2018-12-05T05:56:05.837Z,944.7
2018-12-05T05:57:06.520Z,944.71
2018-12-05T05:58:06.928Z,944.73
2018-12-05T05:59:07.614Z,944.77
2018-12-05T06:00:08.576Z,944.77
2018-12-05T06:01:08.985Z,944.76
2018-12-05T06:02:09.402Z,944.78
2018-12-05T06:03:10.806Z,944.8
2018-12-05T06:04:11.488Z,944.84
2018-12-05T06:05:11.896Z,944.86
2018-12-05T06:06:12.386Z,944.82
2018-12-05T06:07:12.626Z,944.8
2018-12-05T06:08:13.593Z,944.86
2018-12-05T06:09:14.277Z,944.78
2018-12-05T06:10:15.685Z,944.83
2018-12-05T06:11:16.824Z,944.86
2018-12-05T06:12:17.511Z,944.88
2018-12-05T06:13:18.628Z,944.85
2018-12-05T06:14:19.627Z,944.86
2018-12-05T06:15:20.591Z,944.89
2018-12-05T06:16:21.064Z,944.89
2018-12-05T06:17:21.305Z,944.88
2018-12-05T06:18:22.434Z,944.91
2018-12-05T06:19:23.397Z,944.92
2018-12-05T06:20:23.804Z,944.86
2018-12-05T06:21:24.492Z,944.86
2018-12-05T06:22:24.731Z,944.86
2018-12-05T06:23:25.836Z,944.83
2018-12-05T06:24:26.523Z,944.84
2018-12-05T06:25:26.930Z,944.89
2018-12-05T06:26:27.614Z,944.89
2018-12-05T06:27:28.593Z,944.85
2018-12-05T06:28:29.747Z,944.83
2018-12-05T06:29:30.432Z,944.82
2018-12-05T06:30:31.120Z,944.77
2018-12-05T06:31:32.255Z,944.84
2018-12-05T06:32:32.661Z,944.86
2018-12-05T06:33:33.791Z,944.85
2018-12-05T06:34:34.478Z,944.86
2018-12-05T06:35:35.169Z,944.87
2018-12-05T06:36:35.686Z,944.91
2018-12-05T06:37:36.099Z,944.93
2018-12-05T06:38:36.512Z,944.98
2018-12-05T06:39:37.204Z,944.94
2018-12-05T06:40:37.608Z,945
2018-12-05T06:41:38.140Z,945
2018-12-05T06:42:38.549Z,945.07
2018-12-05T06:43:39.383Z,945.08
2018-12-05T06:44:40.133Z,945.08
2018-12-05T06:45:40.838Z,945.1
2018-12-05T06:46:41.248Z,945.11
2018-12-05T06:47:42.380Z,945.15
2018-12-05T06:48:42.794Z,945.18
2018-12-05T06:49:43.480Z,945.16
2018-12-05T06:50:43.887Z,945.18
2018-12-05T06:51:44.587Z,945.22
2018-12-05T06:52:45.548Z,945.18
2018-12-05T06:53:46.675Z,945.15
2018-12-05T06:54:47.118Z,945.18
2018-12-05T06:55:47.824Z,945.19
2018-12-05T06:56:48.786Z,945.18
2018-12-05T06:57:49.194Z,945.21
2018-12-05T06:58:49.884Z,945.23
2018-12-05T06:59:50.132Z,945.27
2018-12-05T07:00:51.262Z,945.24
2018-12-05T07:01:51.945Z,945.3
2018-12-05T07:02:52.638Z,945.32
2018-12-05T07:03:53.471Z,945.34
2018-12-05T07:04:54.434Z,945.34
2018-12-05T07:05:55.396Z,945.35
2018-12-05T07:06:56.082Z,945.31
2018-12-05T07:07:56.490Z,945.35
2018-12-05T07:08:56.905Z,945.32
2018-12-05T07:09:57.308Z,945.33
2018-12-05T07:10:57.714Z,945.4
2018-12-05T07:11:58.397Z,945.32
2018-12-05T07:12:59.532Z,945.32
2018-12-05T07:14:00.079Z,945.36
2018-12-05T07:15:01.323Z,945.33
2018-12-05T07:16:02.010Z,945.38
2018-12-05T07:17:02.418Z,945.37
2018-12-05T07:18:03.382Z,945.39
2018-12-05T07:19:03.792Z,945.38
2018-12-05T07:20:04.199Z,945.41
2018-12-05T07:21:04.891Z,945.43
2018-12-05T07:22:05.410Z,945.44
2018-12-05T07:23:05.819Z,945.41
2018-12-05T07:24:06.914Z,945.44
2018-12-05T07:25:07.127Z,945.43
2018-12-05T07:26:07.815Z,945.42
2018-12-05T07:27:08.782Z,945.43
2018-12-05T07:28:09.472Z,945.38
2018-12-05T07:29:10.163Z,945.41
2018-12-05T07:30:11.572Z,945.45
2018-12-05T07:31:12.264Z,945.48
2018-12-05T07:32:12.951Z,945.48
2018-12-05T07:33:13.730Z,945.47
2018-12-05T07:34:14.338Z,945.5
2018-12-05T07:35:15.125Z,945.5
2018-12-05T07:36:15.537Z,945.5
2018-12-05T07:37:16.508Z,945.54
2018-12-05T07:38:20.221Z,945.53
2018-12-05T07:39:20.913Z,945.53
2018-12-05T07:40:21.876Z,945.55
2018-12-05T07:41:22.362Z,945.58
2018-12-05T07:42:23.378Z,945.56
2018-12-05T07:43:24.068Z,945.61
2018-12-05T07:44:25.353Z,945.63
2018-12-05T07:45:26.078Z,945.62
2018-12-05T07:46:26.762Z,945.7
2018-12-05T07:47:27.168Z,945.67
2018-12-05T07:48:27.856Z,945.71
2018-12-05T07:49:28.544Z,945.72
2018-12-05T07:50:29.952Z,945.76
2018-12-05T07:51:30.641Z,945.71
2018-12-05T07:52:31.327Z,945.66
2018-12-05T07:53:32.460Z,945.67
2018-12-05T07:54:33.575Z,945.66
2018-12-05T07:55:33.980Z,945.62
2018-12-05T07:56:35.111Z,945.57
2018-12-05T07:57:35.519Z,945.56
2018-12-05T07:58:36.420Z,945.57
2018-12-05T07:59:37.109Z,945.58
2018-12-05T08:00:37.796Z,945.54
2018-12-05T08:01:38.503Z,945.59
2018-12-05T08:02:39.753Z,945.58
2018-12-05T08:03:40.518Z,945.53
2018-12-05T08:04:41.059Z,945.57
2018-12-05T08:05:42.197Z,945.51
2018-12-05T08:06:42.887Z,945.49
2018-12-05T08:07:44.296Z,945.57
2018-12-05T08:08:45.261Z,945.58
2018-12-05T08:09:45.953Z,945.59
2018-12-05T08:10:46.640Z,945.63
2018-12-05T08:11:47.332Z,945.64
2018-12-05T08:12:47.969Z,945.64
2018-12-05T08:13:49.208Z,945.68
2018-12-05T08:14:50.023Z,945.61
2018-12-05T08:15:50.432Z,945.57
2018-12-05T08:16:50.896Z,945.51
2018-12-05T08:17:51.416Z,945.52
2018-12-05T08:18:51.827Z,945.55
2018-12-05T08:19:52.958Z,945.55
2018-12-05T08:20:54.094Z,945.57
2018-12-05T08:21:56.324Z,945.51
2018-12-05T08:22:06.592Z,945.51
2018-12-05T08:23:06.283Z,945.47
2018-12-05T08:24:06.703Z,945.47
2018-12-05T08:25:07.492Z,945.44
2018-12-05T08:26:08.627Z,945.47
2018-12-05T08:27:09.321Z,945.53
2018-12-05T08:28:09.567Z,945.51
2018-12-05T08:29:10.253Z,945.48
2018-12-05T08:30:10.673Z,945.49
2018-12-05T08:31:11.082Z,945.45
2018-12-05T08:32:11.795Z,945.41
2018-12-05T08:33:12.916Z,945.44
2018-12-05T08:34:14.325Z,945.43
2018-12-05T08:35:15.455Z,945.48
2018-12-05T08:36:17.682Z,945.48
2018-12-05T08:37:18.202Z,945.5
2018-12-05T08:38:18.889Z,945.49
2018-12-05T08:39:19.582Z,945.47
2018-12-05T08:40:19.987Z,945.44
2018-12-05T08:40:33.534Z,945.44
2018-12-05T08:40:45.708Z,945.42
2018-12-05T08:40:57.659Z,945.41
2018-12-05T08:41:57.416Z,945.46
2018-12-05T08:42:57.831Z,945.47
2018-12-05T08:43:58.525Z,945.43
2018-12-05T08:44:59.494Z,945.43
2018-12-05T08:46:00.456Z,945.45
2018-12-05T08:47:01.873Z,945.45
2018-12-05T08:48:02.284Z,945.47
2018-12-05T08:49:02.973Z,945.49
2018-12-05T08:50:03.952Z,945.44
2018-12-05T08:51:04.169Z,945.43
2018-12-05T08:52:04.544Z,945.46
2018-12-05T08:53:05.518Z,945.45
2018-12-05T08:54:06.207Z,945.4
2018-12-05T08:55:06.898Z,945.41
2018-12-05T08:56:07.990Z,945.4
2018-12-05T08:57:09.101Z,945.44
2018-12-05T08:58:09.309Z,945.43
2018-12-05T08:59:11.223Z,945.4
2018-12-05T08:59:21.923Z,945.42
2018-12-05T09:00:22.170Z,945.36
2018-12-05T09:01:22.604Z,945.37
2018-12-05T09:02:23.451Z,945.34
2018-12-05T09:03:24.594Z,945.39
2018-12-05T09:04:25.286Z,945.4
2018-12-05T09:05:27.263Z,945.39
2018-12-05T09:05:38.391Z,945.38
2018-12-05T09:05:51.059Z,945.41
2018-12-05T09:06:50.944Z,945.35
2018-12-05T09:07:51.357Z,945.42
2018-12-05T09:08:52.772Z,945.38
2018-12-05T09:09:53.470Z,945.38
2018-12-05T09:10:54.884Z,945.35
2018-12-05T09:11:55.579Z,945.33
2018-12-05T09:12:56.055Z,945.32
2018-12-05T09:13:56.546Z,945.31
2018-12-05T09:14:57.688Z,945.31
2018-12-05T09:15:58.103Z,945.37
2018-12-05T09:16:58.492Z,945.38
2018-12-05T09:17:59.517Z,945.37
2018-12-05T09:19:00.205Z,945.36
2018-12-05T09:20:00.620Z,945.34
2018-12-05T09:21:01.311Z,945.29
2018-12-05T09:22:02.131Z,945.24
2018-12-05T09:23:02.541Z,945.25
2018-12-05T09:24:03.534Z,945.26
2018-12-05T09:25:06.252Z,945.25
2018-12-05T09:25:16.976Z,945.27
2018-12-05T09:26:19.367Z,945.32
2018-12-05T09:27:21.518Z,945.32
2018-12-05T09:27:32.628Z,945.3
2018-12-05T09:28:33.277Z,945.34
2018-12-05T09:29:36.038Z,945.3
2018-12-05T09:30:36.181Z,945.28
2018-12-05T09:31:36.872Z,945.26
2018-12-05T09:32:37.565Z,945.21
2018-12-05T09:33:37.981Z,945.16
2018-12-05T09:34:38.957Z,945.13
2018-12-05T09:35:39.375Z,945.12
2018-12-05T09:36:40.339Z,945.08
2018-12-05T09:37:41.348Z,945.07
2018-12-05T09:38:42.010Z,945.09
2018-12-05T09:39:42.977Z,945.1
2018-12-05T09:40:43.942Z,945.09
2018-12-05T09:41:44.354Z,945.04
2018-12-05T09:42:45.046Z,945.04
2018-12-05T09:43:46.180Z,945.02
2018-12-05T09:44:46.606Z,944.99
2018-12-05T09:45:47.307Z,944.96
2018-12-05T09:46:48.337Z,944.95
2018-12-05T09:47:48.770Z,944.96
2018-12-05T09:48:49.118Z,944.97
2018-12-05T09:49:49.810Z,944.94
2018-12-05T09:50:50.382Z,944.95
2018-12-05T09:51:51.519Z,945
2018-12-05T09:52:52.209Z,944.97
2018-12-05T09:53:52.951Z,945.02
2018-12-05T09:54:53.363Z,945.02
2018-12-05T09:55:54.056Z,945.03
2018-12-05T09:56:54.311Z,945.05
2018-12-05T09:57:54.722Z,945.04
2018-12-05T09:58:55.320Z,945.1
2018-12-05T09:59:56.303Z,945.07
2018-12-05T10:00:56.713Z,945.05
2018-12-05T10:01:57.411Z,945.07
2018-12-05T10:02:57.653Z,945.07
2018-12-05T10:03:58.065Z,945.13
2018-12-05T10:04:59.200Z,945.15
2018-12-05T10:06:00.333Z,945.16
2018-12-05T10:07:00.792Z,945.17
2018-12-05T10:08:01.208Z,945.18
2018-12-05T10:09:02.314Z,945.11
2018-12-05T10:10:02.999Z,945.1
2018-12-05T10:11:03.409Z,945.1
2018-12-05T10:12:04.102Z,945
2018-12-05T10:13:05.124Z,944.97
2018-12-05T10:14:05.847Z,944.96
2018-12-05T10:15:06.533Z,944.95
2018-12-05T10:16:08.248Z,944.97
2018-12-05T10:16:19.858Z,944.97
2018-12-05T10:16:32.046Z,945.01
2018-12-05T10:17:32.556Z,945.04
2018-12-05T10:18:33.033Z,945.02
2018-12-05T10:19:34.318Z,945.04
2018-12-05T10:20:35.455Z,945.05
2018-12-05T10:21:36.143Z,945.04
2018-12-05T10:22:36.563Z,945.03
2018-12-05T10:23:37.254Z,945.03
2018-12-05T10:24:37.945Z,944.99
2018-12-05T10:25:38.981Z,945
2018-12-05T10:26:40.849Z,945.09
2018-12-05T10:26:51.515Z,945.02
2018-12-05T10:27:52.653Z,945.05
2018-12-05T10:28:53.623Z,945.04
2018-12-05T10:29:54.038Z,945.1
2018-12-05T10:30:55.868Z,945.13
2018-12-05T10:31:06.999Z,945.16
2018-12-05T10:32:08.902Z,945.2
2018-12-05T10:33:08.599Z,945.24
2018-12-05T10:34:09.012Z,945.29
2018-12-05T10:35:09.361Z,945.33
2018-12-05T10:36:09.785Z,945.37
2018-12-05T10:37:12.094Z,945.37
2018-12-05T10:37:21.924Z,945.33
2018-12-05T10:38:22.292Z,945.33
2018-12-05T10:39:22.801Z,945.32
2018-12-05T10:40:23.628Z,945.28
2018-12-05T10:41:24.604Z,945.3
2018-12-05T10:42:25.741Z,945.3
2018-12-05T10:43:27.154Z,945.25
2018-12-05T10:44:27.567Z,945.22
2018-12-05T10:45:28.704Z,945.2
2018-12-05T10:46:29.397Z,945.23
2018-12-05T10:47:30.090Z,945.2
2018-12-05T10:48:30.916Z,945.23
2018-12-05T10:49:31.612Z,945.18
2018-12-05T10:50:32.747Z,945.14
2018-12-05T10:51:33.768Z,945.13
2018-12-05T10:52:34.498Z,945.13
2018-12-05T10:53:35.198Z,945.13
2018-12-05T10:54:35.888Z,945.14
2018-12-05T10:55:36.858Z,945.15
2018-12-05T10:56:37.990Z,945.14
2018-12-05T10:57:38.401Z,945.15
2018-12-05T10:58:38.943Z,945.12
2018-12-05T10:59:39.635Z,945.1
2018-12-05T11:00:40.331Z,945.11
2018-12-05T11:01:41.461Z,945.04
2018-12-05T11:02:42.163Z,944.99
2018-12-05T11:03:43.303Z,944.95
2018-12-05T11:04:44.438Z,944.97
2018-12-05T11:05:44.853Z,944.94
2018-12-05T11:06:45.378Z,944.9
2018-12-05T11:07:46.512Z,944.91
2018-12-05T11:08:47.610Z,944.88
2018-12-05T11:09:48.581Z,944.87
2018-12-05T11:10:49.270Z,944.85
2018-12-05T11:11:49.515Z,944.71
2018-12-05T11:12:50.206Z,944.68
2018-12-05T11:13:50.625Z,944.66
2018-12-05T11:14:51.315Z,944.62
2018-12-05T11:15:52.002Z,944.64
2018-12-05T11:16:53.257Z,944.62
2018-12-05T11:17:53.954Z,944.62
2018-12-05T11:18:54.981Z,944.62
2018-12-05T11:19:56.262Z,944.59
2018-12-05T11:20:56.677Z,944.53
2018-12-05T11:21:57.110Z,944.56
2018-12-05T11:22:57.847Z,944.56
2018-12-05T11:23:58.300Z,944.52
2018-12-05T11:24:59.666Z,944.52
2018-12-05T11:26:00.468Z,944.5
2018-12-05T11:27:01.943Z,944.5
2018-12-05T11:28:04.315Z,944.48
2018-12-05T11:28:15.239Z,944.49
2018-12-05T11:29:14.992Z,944.48
2018-12-05T11:30:15.963Z,944.46
2018-12-05T11:31:16.656Z,944.48
2018-12-05T11:32:17.790Z,944.41
2018-12-05T11:33:18.483Z,944.41
2018-12-05T11:34:19.528Z,944.42
2018-12-05T11:35:19.773Z,944.39
2018-12-05T11:36:21.190Z,944.38
2018-12-05T11:37:22.324Z,944.44
2018-12-05T11:38:23.015Z,944.44
2018-12-05T11:39:23.678Z,944.42
2018-12-05T11:40:24.485Z,944.36
2018-12-05T11:41:25.213Z,944.36
2018-12-05T11:42:26.190Z,944.36
2018-12-05T11:43:26.610Z,944.36
2018-12-05T11:44:27.298Z,944.35
2018-12-05T11:45:27.713Z,944.37
2018-12-05T11:46:29.837Z,944.34
2018-12-05T11:46:40.985Z,944.34
2018-12-05T11:46:53.224Z,944.34
2018-12-05T11:47:53.039Z,944.37
2018-12-05T11:48:53.453Z,944.35
2018-12-05T11:49:54.148Z,944.36
2018-12-05T11:50:55.560Z,944.36
2018-12-05T11:51:56.567Z,944.33
2018-12-05T11:52:57.257Z,944.29
2018-12-05T11:53:57.951Z,944.26
2018-12-05T11:54:58.645Z,944.33
2018-12-05T11:55:59.781Z,944.28
2018-12-05T11:57:00.755Z,944.31
2018-12-05T11:58:02.127Z,944.25
2018-12-05T11:59:02.821Z,944.28
2018-12-05T12:00:03.788Z,944.27
2018-12-05T12:01:04.477Z,944.27
2018-12-05T12:02:05.893Z,944.26
2018-12-05T12:03:06.588Z,944.22
2018-12-05T12:04:07.285Z,944.21
2018-12-05T12:05:07.975Z,944.2
2018-12-05T12:06:08.393Z,944.21
2018-12-05T12:07:09.062Z,944.22
2018-12-05T12:08:09.885Z,944.22
2018-12-05T12:09:10.580Z,944.19
2018-12-05T12:10:11.283Z,944.2
2018-12-05T12:11:11.698Z,944.2
2018-12-05T12:12:12.430Z,944.19
2018-12-05T12:13:12.842Z,944.15
2018-12-05T12:14:13.812Z,944.15
2018-12-05T12:15:14.509Z,944.1
2018-12-05T12:16:16.549Z,944.06
2018-12-05T12:16:27.806Z,944.07
2018-12-05T12:17:29.324Z,944.06
2018-12-05T12:17:41.891Z,944.04
2018-12-05T12:17:52.700Z,944.03
2018-12-05T12:18:53.049Z,944.01
2018-12-05T12:19:54.104Z,944.03
2018-12-05T12:20:54.517Z,943.93
2018-12-05T12:21:55.237Z,943.93
2018-12-05T12:22:57.473Z,943.95
2018-12-05T12:23:08.586Z,943.97
2018-12-05T12:24:08.902Z,943.97